createdAt,value
2022-08-20T00:00:35.320Z,26.2
2022-08-20T00:01:35.398Z,26.24
2022-08-20T00:02:35.330Z,26.29
2022-08-20T00:03:35.311Z,26.19
2022-08-20T00:04:35.347Z,26.22
2022-08-20T00:05:35.315Z,26.2
2022-08-20T00:06:35.306Z,26.17
2022-08-20T00:07:35.326Z,26.21
2022-08-20T00:08:35.323Z,26.2
2022-08-20T00:09:36.454Z,26.21
2022-08-20T00:10:35.310Z,26.19
2022-08-20T00:11:35.302Z,26.21
2022-08-20T00:12:35.321Z,26.19
2022-08-20T00:13:35.315Z,26.21
2022-08-20T00:14:35.300Z,26.22
2022-08-20T00:15:35.306Z,26.2
2022-08-20T00:16:35.325Z,26.2
2022-08-20T00:17:35.293Z,26.2
2022-08-20T00:18:35.318Z,26.33
2022-08-20T00:19:35.305Z,26.25
2022-08-20T00:20:35.297Z,26.39
2022-08-20T00:21:35.291Z,26.19
2022-08-20T00:22:35.295Z,26.15
2022-08-20T00:23:35.314Z,26.22
2022-08-20T00:24:35.289Z,26.19
2022-08-20T00:25:35.294Z,26.21
2022-08-20T00:26:35.290Z,26.18
2022-08-20T00:27:35.289Z,26.19
2022-08-20T00:28:35.305Z,26.17
2022-08-20T00:29:35.291Z,26.18
2022-08-20T00:30:35.281Z,26.35
2022-08-20T00:31:35.285Z,26.21
2022-08-20T00:32:35.288Z,26.2
2022-08-20T00:33:35.305Z,26.2
2022-08-20T00:34:35.281Z,26.2
2022-08-20T00:35:35.281Z,26.19
2022-08-20T00:36:35.277Z,26.17
2022-08-20T00:37:35.271Z,26.16
2022-08-20T00:38:35.315Z,26.22
2022-08-20T00:39:35.311Z,26.2
2022-08-20T00:40:35.267Z,26.21
2022-08-20T00:41:35.272Z,26.18
2022-08-20T00:42:35.274Z,26.18
2022-08-20T00:43:35.308Z,26.23
2022-08-20T00:44:35.269Z,26.29
2022-08-20T00:45:35.274Z,26.24
2022-08-20T00:46:35.261Z,26.19
2022-08-20T00:47:35.266Z,26.19
2022-08-20T00:48:35.280Z,26.21
2022-08-20T00:49:35.267Z,26.19
2022-08-20T00:50:35.278Z,26.2
2022-08-20T00:51:35.263Z,26.17
2022-08-20T00:52:35.273Z,26.16
2022-08-20T00:53:35.252Z,26.16
2022-08-20T00:54:35.255Z,26.15
2022-08-20T00:55:35.256Z,26.19
2022-08-20T00:56:35.255Z,26.31
2022-08-20T00:57:59.135Z,26.19
2022-08-20T00:58:35.254Z,26.18
2022-08-20T00:59:35.264Z,26.22
2022-08-20T01:00:35.267Z,26.21
2022-08-20T01:01:52.738Z,26.18
2022-08-20T01:02:35.248Z,26.22
2022-08-20T01:03:35.249Z,26.23
2022-08-20T01:04:35.271Z,26.33
2022-08-20T01:05:35.256Z,26.24
2022-08-20T01:06:35.250Z,26.2
2022-08-20T01:07:35.240Z,26.25
2022-08-20T01:08:35.235Z,26.21
2022-08-20T01:09:58.577Z,26.16
2022-08-20T01:10:35.249Z,26.16
2022-08-20T01:11:37.124Z,26.17
2022-08-20T01:12:35.230Z,26.21
2022-08-20T01:13:35.236Z,26.17
2022-08-20T01:14:35.230Z,26.2
2022-08-20T01:15:35.249Z,26.18
2022-08-20T01:16:35.234Z,26.16
2022-08-20T01:17:35.231Z,26.16
2022-08-20T01:18:35.231Z,26.22
2022-08-20T01:19:35.221Z,26.18
2022-08-20T01:20:35.237Z,26.21
2022-08-20T01:21:35.225Z,26.17
2022-08-20T01:22:35.230Z,26.27
2022-08-20T01:23:35.224Z,26.16
2022-08-20T01:24:35.229Z,26.22
2022-08-20T01:25:35.231Z,26.17
2022-08-20T01:26:35.225Z,26.21
2022-08-20T01:27:35.233Z,26.26
2022-08-20T01:28:35.217Z,26.2
2022-08-20T01:29:35.209Z,26.16
2022-08-20T01:30:35.228Z,26.18
2022-08-20T01:31:35.214Z,26.14
2022-08-20T01:32:35.220Z,26.21
2022-08-20T01:33:35.210Z,26.24
2022-08-20T01:34:35.218Z,26.21
2022-08-20T01:35:35.224Z,26.16
2022-08-20T01:36:35.204Z,26.16
2022-08-20T01:37:35.215Z,26.2
2022-08-20T01:38:35.205Z,26.19
2022-08-20T01:39:35.253Z,26.19
2022-08-20T01:40:35.222Z,26.17
2022-08-20T01:41:35.203Z,26.21
2022-08-20T01:42:35.211Z,26.41
2022-08-20T01:43:37.009Z,26.18
2022-08-20T01:44:35.198Z,26.16
2022-08-20T01:45:35.235Z,26.15
2022-08-20T01:46:38.089Z,26.16
2022-08-20T01:47:38.744Z,26.17
2022-08-20T01:48:35.196Z,26.16
2022-08-20T01:49:35.189Z,26.15
2022-08-20T01:50:35.204Z,26.17
2022-08-20T01:51:35.193Z,26.15
2022-08-20T01:52:35.186Z,26.16
2022-08-20T01:53:35.201Z,26.16
2022-08-20T01:54:35.192Z,26.21
2022-08-20T01:55:35.189Z,26.15
2022-08-20T01:56:35.196Z,26.19
2022-08-20T01:57:35.186Z,26.15
2022-08-20T01:58:35.186Z,26.31
2022-08-20T01:59:35.177Z,26.2
2022-08-20T02:00:35.182Z,26.29
2022-08-20T02:01:46.116Z,26.16
2022-08-20T02:02:35.177Z,26.16
2022-08-20T02:03:39.755Z,26.17
2022-08-20T02:04:35.209Z,26.18
2022-08-20T02:05:35.173Z,26.3
2022-08-20T02:06:35.191Z,26.18
2022-08-20T02:07:35.189Z,26.22
2022-08-20T02:08:35.169Z,26.16
2022-08-20T02:09:35.180Z,26.17
2022-08-20T02:10:35.174Z,26.18
2022-08-20T02:11:35.166Z,26.15
2022-08-20T02:12:35.170Z,26.16
2022-08-20T02:13:35.160Z,26.16
2022-08-20T02:14:35.179Z,26.16
2022-08-20T02:15:37.348Z,26.17
2022-08-20T02:16:35.167Z,26.2
2022-08-20T02:17:35.173Z,26.16
2022-08-20T02:18:35.158Z,26.16
2022-08-20T02:19:35.162Z,26.14
2022-08-20T02:20:35.164Z,26.15
2022-08-20T02:21:35.162Z,26.16
2022-08-20T02:22:35.164Z,26.16
2022-08-20T02:23:35.154Z,26.17
2022-08-20T02:24:35.150Z,26.16
2022-08-20T02:25:35.153Z,26.18
2022-08-20T02:26:35.146Z,26.16
2022-08-20T02:27:35.156Z,26.13
2022-08-20T02:28:35.143Z,26.25
2022-08-20T02:29:35.148Z,26.19
2022-08-20T02:30:35.145Z,26.2
2022-08-20T02:31:35.173Z,26.16
2022-08-20T02:32:35.154Z,26.14
2022-08-20T02:33:35.144Z,26.16
2022-08-20T02:34:35.144Z,26.16
2022-08-20T02:35:35.151Z,26.19
2022-08-20T02:36:35.135Z,26.23
2022-08-20T02:37:35.140Z,26.14
2022-08-20T02:38:35.154Z,26.16
2022-08-20T02:39:35.213Z,26.13
2022-08-20T02:40:35.130Z,26.23
2022-08-20T02:41:35.145Z,26.2
2022-08-20T02:42:35.128Z,26.19
2022-08-20T02:43:35.124Z,26.17
2022-08-20T02:44:35.126Z,26.16
2022-08-20T02:45:35.138Z,26.16
2022-08-20T02:46:35.125Z,26.21
2022-08-20T02:47:35.128Z,26.2
2022-08-20T02:48:35.127Z,26.2
2022-08-20T02:49:35.152Z,26.2
2022-08-20T02:50:35.134Z,26.23
2022-08-20T02:51:35.126Z,26.19
2022-08-20T02:52:35.130Z,26.21
2022-08-20T02:53:35.115Z,26.2
2022-08-20T02:54:35.130Z,26.2
2022-08-20T02:55:35.133Z,26.21
2022-08-20T02:56:35.117Z,26.21
2022-08-20T02:57:35.137Z,26.25
2022-08-20T02:58:35.123Z,26.21
2022-08-20T02:59:35.121Z,26.19
2022-08-20T03:00:38.309Z,26.42
2022-08-20T03:01:35.162Z,26.2
2022-08-20T03:02:35.126Z,26.23
2022-08-20T03:03:35.111Z,26.24
2022-08-20T03:04:35.133Z,26.2
2022-08-20T03:05:35.114Z,26.17
2022-08-20T03:06:35.106Z,26.21
2022-08-20T03:07:35.100Z,26.17
2022-08-20T03:08:35.101Z,26.34
2022-08-20T03:09:35.099Z,26.16
2022-08-20T03:10:35.125Z,26.17
2022-08-20T03:11:35.102Z,26.14
2022-08-20T03:12:35.100Z,26.25
2022-08-20T03:13:35.093Z,26.23
2022-08-20T03:14:35.096Z,26.21
2022-08-20T03:15:35.107Z,26.18
2022-08-20T03:16:35.100Z,26.18
2022-08-20T03:17:35.105Z,26.15
2022-08-20T03:18:35.092Z,26.17
2022-08-20T03:19:35.092Z,26.17
2022-08-20T03:20:35.103Z,26.19
2022-08-20T03:21:35.088Z,26.22
2022-08-20T03:22:35.088Z,26.25
2022-08-20T03:23:35.098Z,26.21
2022-08-20T03:24:35.079Z,26.2
2022-08-20T03:25:35.078Z,26.2
2022-08-20T03:26:35.076Z,26.18
2022-08-20T03:27:36.461Z,26.21
2022-08-20T03:28:35.091Z,26.16
2022-08-20T03:29:35.078Z,26.17
2022-08-20T03:30:35.074Z,26.2
2022-08-20T03:31:35.078Z,26.21
2022-08-20T03:32:35.072Z,26.16
2022-08-20T03:33:35.145Z,26.15
2022-08-20T03:34:35.072Z,26.21
2022-08-20T03:35:35.099Z,26.2
2022-08-20T03:36:35.069Z,26.32
2022-08-20T03:37:35.068Z,26.17
2022-08-20T03:38:35.068Z,26.17
2022-08-20T03:39:35.094Z,26.26
2022-08-20T03:40:35.075Z,26.16
2022-08-20T03:41:35.071Z,26.15
2022-08-20T03:42:35.067Z,26.18
2022-08-20T03:43:35.070Z,26.16
2022-08-20T03:44:35.072Z,26.17
2022-08-20T03:45:35.062Z,26.14
2022-08-20T03:46:35.058Z,26.18
2022-08-20T03:47:35.054Z,26.14
2022-08-20T03:48:35.059Z,26.2
2022-08-20T03:49:35.067Z,26.15
2022-08-20T03:50:35.055Z,26.16
2022-08-20T03:51:56.260Z,26.16
2022-08-20T03:52:35.051Z,26.18
2022-08-20T03:53:35.057Z,26.16
2022-08-20T03:54:35.044Z,26.16
2022-08-20T03:55:35.042Z,26.16
2022-08-20T03:56:35.069Z,26.15
2022-08-20T03:57:35.048Z,26.16
2022-08-20T03:58:36.341Z,26.32
2022-08-20T03:59:35.049Z,26.16
2022-08-20T04:00:35.043Z,26.19
2022-08-20T04:01:38.625Z,26.14
2022-08-20T04:02:35.035Z,26.26
2022-08-20T04:03:35.039Z,26.32
2022-08-20T04:04:35.060Z,26.39
2022-08-20T04:05:35.037Z,26.15
2022-08-20T04:06:35.051Z,26.23
2022-08-20T04:07:35.039Z,26.14
2022-08-20T04:08:35.039Z,26.2
2022-08-20T04:09:35.035Z,26.18
2022-08-20T04:10:35.035Z,26.19
2022-08-20T04:11:35.044Z,26.19
2022-08-20T04:12:35.030Z,26.16
2022-08-20T04:13:37.129Z,26.16
2022-08-20T04:14:35.042Z,26.15
2022-08-20T04:15:35.029Z,26.2
2022-08-20T04:16:35.032Z,26.16
2022-08-20T04:17:35.023Z,26.25
2022-08-20T04:18:35.021Z,26.16
2022-08-20T04:19:35.020Z,26.2
2022-08-20T04:20:35.022Z,26.2
2022-08-20T04:21:35.029Z,26.19
2022-08-20T04:22:35.037Z,26.16
2022-08-20T04:23:35.017Z,26.17
2022-08-20T04:24:35.009Z,26.15
2022-08-20T04:25:35.727Z,26.15
2022-08-20T04:26:35.048Z,26.28
2022-08-20T04:27:35.010Z,26.15
2022-08-20T04:28:35.003Z,26.18
2022-08-20T04:29:35.668Z,26.19
2022-08-20T04:30:35.010Z,26.19
2022-08-20T04:31:35.021Z,26.19
2022-08-20T04:32:35.008Z,26.18
2022-08-20T04:33:35.470Z,26.13
2022-08-20T04:34:34.999Z,26.17
2022-08-20T04:35:34.998Z,26.14
2022-08-20T04:36:35.013Z,26.16
2022-08-20T04:37:35.001Z,26.14
2022-08-20T04:38:48.161Z,26.14
2022-08-20T04:39:35.065Z,26.13
2022-08-20T04:40:34.999Z,26.15
2022-08-20T04:41:35.012Z,26.14
2022-08-20T04:42:34.986Z,26.16
2022-08-20T04:43:34.989Z,26.13
2022-08-20T04:44:34.994Z,26.16
2022-08-20T04:45:34.984Z,26.11
2022-08-20T04:46:35.008Z,26.2
2022-08-20T04:47:35.075Z,26.19
2022-08-20T04:48:34.981Z,26.15
2022-08-20T04:49:34.983Z,26.15
2022-08-20T04:50:34.995Z,26.14
2022-08-20T04:51:34.979Z,26.17
2022-08-20T04:52:34.983Z,26.18
2022-08-20T04:53:34.995Z,26.14
2022-08-20T04:54:34.978Z,26.15
2022-08-20T04:55:34.993Z,26.13
2022-08-20T04:56:34.985Z,26.16
2022-08-20T04:57:34.978Z,26.18
2022-08-20T04:58:34.988Z,26.14
2022-08-20T04:59:34.967Z,26.14
2022-08-20T05:00:34.977Z,26.15
2022-08-20T05:01:35.045Z,26.15
2022-08-20T05:02:34.967Z,26.14
2022-08-20T05:03:34.985Z,26.16
2022-08-20T05:04:34.987Z,26.16
2022-08-20T05:05:34.965Z,26.15
2022-08-20T05:06:34.991Z,26.26
2022-08-20T05:07:34.963Z,26.13
2022-08-20T05:08:34.968Z,26.17
2022-08-20T05:09:44.173Z,26.14
2022-08-20T05:10:34.959Z,26.14
2022-08-20T05:11:36.919Z,26.14
2022-08-20T05:12:34.967Z,26.15
2022-08-20T05:13:34.959Z,26.12
2022-08-20T05:14:34.967Z,26.14
2022-08-20T05:15:34.959Z,26.14
2022-08-20T05:16:34.971Z,26.15
2022-08-20T05:17:34.952Z,26.14
2022-08-20T05:18:34.956Z,26.19
2022-08-20T05:19:38.780Z,26.13
2022-08-20T05:20:34.952Z,26.13
2022-08-20T05:21:34.961Z,26.2
2022-08-20T05:22:34.971Z,26.19
2022-08-20T05:23:34.958Z,26.15
2022-08-20T05:24:34.945Z,26.16
2022-08-20T05:25:34.943Z,26.14
2022-08-20T05:26:34.942Z,26.14
2022-08-20T05:27:34.957Z,26.14
2022-08-20T05:28:38.697Z,26.12
2022-08-20T05:29:34.938Z,26.15
2022-08-20T05:30:34.937Z,26.15
2022-08-20T05:31:35.217Z,26.16
2022-08-20T05:32:34.952Z,26.16
2022-08-20T05:33:34.939Z,26.15
2022-08-20T05:34:34.949Z,26.15
2022-08-20T05:35:34.934Z,26.18
2022-08-20T05:36:34.928Z,26.2
2022-08-20T05:37:34.933Z,26.16
2022-08-20T05:38:34.942Z,26.16
2022-08-20T05:39:37.464Z,26.14
2022-08-20T05:40:34.919Z,26.19
2022-08-20T05:41:34.922Z,26.12
2022-08-20T05:42:34.925Z,26.14
2022-08-20T05:43:34.935Z,26.15
2022-08-20T05:44:34.925Z,26.19
2022-08-20T05:45:34.929Z,26.16
2022-08-20T05:46:34.929Z,26.17
2022-08-20T05:47:37.220Z,26.12
2022-08-20T05:48:34.934Z,26.15
2022-08-20T05:49:34.921Z,26.17
2022-08-20T05:50:34.917Z,26.23
2022-08-20T05:51:34.909Z,26.17
2022-08-20T05:52:34.910Z,26.14
2022-08-20T05:53:34.920Z,26.14
2022-08-20T05:54:34.913Z,26.16
2022-08-20T05:55:34.927Z,26.12
2022-08-20T05:56:34.917Z,26.14
2022-08-20T05:57:34.904Z,26.15
2022-08-20T05:58:34.902Z,26.17
2022-08-20T05:59:34.936Z,26.16
2022-08-20T06:00:34.900Z,26.13
2022-08-20T06:01:34.969Z,26.14
2022-08-20T06:02:34.904Z,26.15
2022-08-20T06:03:34.903Z,26.19
2022-08-20T06:04:34.941Z,26.28
2022-08-20T06:05:34.893Z,26.16
2022-08-20T06:06:44.995Z,26.18
2022-08-20T06:07:34.899Z,26.17
2022-08-20T06:08:34.895Z,26.2
2022-08-20T06:09:34.906Z,26.14
2022-08-20T06:10:34.892Z,26.13
2022-08-20T06:11:37.211Z,26.16
2022-08-20T06:12:34.893Z,26.15
2022-08-20T06:13:34.905Z,26.14
2022-08-20T06:14:34.907Z,26.14
2022-08-20T06:15:34.888Z,26.16
2022-08-20T06:16:34.895Z,26.16
2022-08-20T06:17:39.477Z,26.16
2022-08-20T06:18:34.885Z,26.14
2022-08-20T06:19:34.932Z,26.18
2022-08-20T06:20:34.880Z,26.13
2022-08-20T06:21:34.881Z,26.16
2022-08-20T06:22:34.884Z,26.16
2022-08-20T06:23:54.247Z,26.16
2022-08-20T06:24:34.893Z,26.12
2022-08-20T06:25:37.816Z,26.15
2022-08-20T06:26:34.888Z,26.21
2022-08-20T06:27:34.874Z,26.14
2022-08-20T06:28:34.873Z,26.16
2022-08-20T06:29:34.889Z,26.14
2022-08-20T06:30:34.864Z,26.22
2022-08-20T06:31:34.884Z,26.2
2022-08-20T06:32:34.882Z,26.17
2022-08-20T06:33:34.863Z,26.2
2022-08-20T06:34:34.866Z,26.15
2022-08-20T06:35:34.865Z,26.15
2022-08-20T06:36:34.872Z,26.16
2022-08-20T06:37:34.868Z,26.16
2022-08-20T06:38:34.862Z,26.17
2022-08-20T06:39:34.913Z,26.19
2022-08-20T06:40:34.861Z,26.19
2022-08-20T06:41:36.240Z,26.17
2022-08-20T06:42:34.871Z,26.18
2022-08-20T06:43:34.855Z,26.16
2022-08-20T06:44:34.850Z,26.2
2022-08-20T06:45:34.853Z,26.17
2022-08-20T06:46:34.847Z,26.19
2022-08-20T06:47:34.860Z,26.18
2022-08-20T06:48:34.861Z,26.2
2022-08-20T06:49:36.241Z,26.22
2022-08-20T06:50:34.856Z,26.15
2022-08-20T06:51:34.842Z,26.16
2022-08-20T06:52:52.892Z,26.2
2022-08-20T06:53:34.843Z,26.2
2022-08-20T06:54:34.851Z,26.15
2022-08-20T06:55:34.853Z,26.21
2022-08-20T06:56:34.840Z,26.24
2022-08-20T06:57:34.830Z,26.2
2022-08-20T06:58:37.214Z,26.21
2022-08-20T06:59:34.830Z,26.17
2022-08-20T07:00:34.852Z,26.2
2022-08-20T07:01:34.875Z,26.17
2022-08-20T07:02:34.848Z,26.21
2022-08-20T07:03:34.832Z,26.17
2022-08-20T07:04:34.848Z,26.16
2022-08-20T07:05:34.840Z,26.16
2022-08-20T07:06:34.824Z,26.15
2022-08-20T07:07:34.847Z,26.2
2022-08-20T07:08:34.822Z,26.34
2022-08-20T07:09:34.821Z,26.17
2022-08-20T07:10:34.826Z,26.28
2022-08-20T07:11:34.819Z,26.19
2022-08-20T07:12:34.835Z,26.2
2022-08-20T07:13:34.814Z,26.19
2022-08-20T07:14:34.823Z,26.23
2022-08-20T07:15:34.833Z,26.2
2022-08-20T07:16:34.813Z,26.39
2022-08-20T07:17:34.823Z,26.21
2022-08-20T07:18:34.829Z,26.21
2022-08-20T07:19:34.810Z,26.18
2022-08-20T07:20:34.830Z,26.19
2022-08-20T07:21:34.816Z,26.19
2022-08-20T07:22:34.808Z,26.2
2022-08-20T07:23:34.824Z,26.21
2022-08-20T07:24:37.881Z,26.28
2022-08-20T07:25:34.806Z,26.18
2022-08-20T07:26:34.807Z,26.19
2022-08-20T07:27:34.803Z,26.17
2022-08-20T07:28:34.813Z,26.23
2022-08-20T07:29:34.801Z,26.19
2022-08-20T07:30:34.794Z,26.17
2022-08-20T07:31:34.923Z,26.16
2022-08-20T07:32:36.845Z,26.23
2022-08-20T07:33:34.808Z,26.2
2022-08-20T07:34:34.821Z,26.23
2022-08-20T07:35:34.790Z,26.24
2022-08-20T07:36:34.804Z,26.23
2022-08-20T07:37:34.788Z,26.19
2022-08-20T07:38:34.794Z,26.21
2022-08-20T07:39:34.823Z,26.28
2022-08-20T07:40:34.789Z,26.19
2022-08-20T07:41:34.805Z,26.21
2022-08-20T07:42:34.786Z,26.21
2022-08-20T07:43:34.791Z,26.23
2022-08-20T07:44:34.801Z,26.26
2022-08-20T07:45:34.782Z,26.16
2022-08-20T07:46:34.787Z,26.18
2022-08-20T07:47:34.778Z,26.21
2022-08-20T07:48:34.781Z,26.24
2022-08-20T07:49:34.787Z,26.31
2022-08-20T07:50:34.777Z,26.2
2022-08-20T07:51:34.779Z,26.19
2022-08-20T07:52:34.779Z,26.3
2022-08-20T07:53:35.933Z,26.23
2022-08-20T07:54:34.796Z,26.24
2022-08-20T07:55:34.766Z,26.19
2022-08-20T07:56:34.771Z,26.23
2022-08-20T07:57:34.765Z,26.2
2022-08-20T07:58:34.768Z,26.25
2022-08-20T07:59:34.782Z,26.24
2022-08-20T08:00:34.795Z,26.22
2022-08-20T08:01:34.772Z,26.21
2022-08-20T08:02:34.765Z,26.27
2022-08-20T08:03:41.068Z,26.21
2022-08-20T08:04:34.782Z,26.26
2022-08-20T08:05:34.771Z,26.21
2022-08-20T08:06:34.760Z,26.25
2022-08-20T08:07:34.754Z,26.2
2022-08-20T08:08:34.752Z,26.2
2022-08-20T08:09:34.769Z,26.28
2022-08-20T08:10:34.755Z,26.25
2022-08-20T08:11:34.752Z,26.25
2022-08-20T08:12:34.753Z,26.19
2022-08-20T08:13:34.751Z,26.24
2022-08-20T08:14:34.763Z,26.28
2022-08-20T08:15:34.755Z,26.21
2022-08-20T08:16:34.744Z,26.3
2022-08-20T08:17:34.746Z,26.32
2022-08-20T08:18:34.747Z,26.26
2022-08-20T08:19:34.770Z,26.22
2022-08-20T08:20:34.743Z,26.3
2022-08-20T08:21:34.743Z,26.44
2022-08-20T08:22:34.737Z,26.32
2022-08-20T08:23:34.737Z,26.31
2022-08-20T08:24:34.749Z,26.43
2022-08-20T08:25:34.732Z,26.31
2022-08-20T08:26:34.747Z,26.39
2022-08-20T08:27:34.745Z,26.3
2022-08-20T08:28:34.734Z,26.27
2022-08-20T08:29:34.725Z,26.25
2022-08-20T08:30:34.733Z,26.25
2022-08-20T08:31:34.729Z,26.33
2022-08-20T08:32:34.737Z,26.32
2022-08-20T08:33:34.729Z,26.35
2022-08-20T08:34:34.934Z,26.38
2022-08-20T08:35:34.727Z,26.35
2022-08-20T08:36:34.725Z,26.26
2022-08-20T08:37:34.734Z,26.31
2022-08-20T08:38:34.726Z,26.27
2022-08-20T08:39:35.116Z,26.32
2022-08-20T08:40:34.735Z,26.28
2022-08-20T08:41:34.743Z,26.27
2022-08-20T08:42:34.716Z,26.35
2022-08-20T08:43:34.723Z,26.3
2022-08-20T08:44:34.722Z,26.28
2022-08-20T08:45:34.712Z,26.39
2022-08-20T08:46:34.728Z,26.34
2022-08-20T08:47:34.718Z,26.35
2022-08-20T08:48:34.725Z,26.35
2022-08-20T08:49:38.012Z,26.39
2022-08-20T08:50:53.932Z,26.26
2022-08-20T08:51:34.720Z,26.31
2022-08-20T08:52:34.711Z,26.35
2022-08-20T08:53:34.707Z,26.35
2022-08-20T08:54:34.715Z,26.4
2022-08-20T08:55:34.701Z,26.39
2022-08-20T08:56:34.717Z,26.4
2022-08-20T08:57:34.701Z,26.39
2022-08-20T08:58:34.693Z,26.34
2022-08-20T08:59:48.472Z,26.36
2022-08-20T09:00:34.692Z,26.48
2022-08-20T09:01:55.423Z,26.34
2022-08-20T09:02:34.775Z,26.5
2022-08-20T09:03:34.692Z,26.35
2022-08-20T09:04:34.718Z,26.37
2022-08-20T09:05:34.685Z,26.4
2022-08-20T09:06:34.698Z,26.36
2022-08-20T09:07:34.684Z,26.41
2022-08-20T09:08:34.686Z,26.38
2022-08-20T09:09:34.686Z,26.39
2022-08-20T09:10:34.684Z,26.43
2022-08-20T09:11:34.699Z,26.36
2022-08-20T09:12:34.707Z,26.39
2022-08-20T09:13:34.678Z,26.38
2022-08-20T09:14:34.673Z,26.38
2022-08-20T09:15:34.679Z,26.4
2022-08-20T09:16:52.380Z,26.4
2022-08-20T09:17:34.672Z,26.37
2022-08-20T09:18:34.693Z,26.35
2022-08-20T09:19:34.692Z,26.38
2022-08-20T09:20:34.668Z,26.43
2022-08-20T09:21:34.677Z,26.46
2022-08-20T09:22:34.705Z,26.46
2022-08-20T09:23:34.672Z,26.41
2022-08-20T09:24:34.671Z,26.39
2022-08-20T09:25:34.671Z,26.38
2022-08-20T09:26:38.969Z,26.44
2022-08-20T09:27:34.674Z,26.37
2022-08-20T09:28:35.141Z,26.42
2022-08-20T09:29:34.679Z,26.42
2022-08-20T09:30:34.676Z,26.48
2022-08-20T09:31:34.672Z,26.38
2022-08-20T09:32:34.662Z,26.46
2022-08-20T09:33:34.653Z,26.43
2022-08-20T09:34:34.658Z,26.4
2022-08-20T09:35:34.674Z,26.37
2022-08-20T09:36:34.659Z,26.35
2022-08-20T09:37:37.544Z,26.5
2022-08-20T09:38:34.674Z,26.36
2022-08-20T09:39:34.680Z,26.36
2022-08-20T09:40:34.647Z,26.47
2022-08-20T09:41:34.862Z,26.47
2022-08-20T09:42:38.908Z,26.52
2022-08-20T09:43:34.649Z,26.49
2022-08-20T09:44:34.640Z,26.44
2022-08-20T09:45:34.639Z,26.43
2022-08-20T09:46:34.658Z,26.52
2022-08-20T09:47:34.649Z,26.5
2022-08-20T09:48:34.638Z,26.44
2022-08-20T09:49:34.641Z,26.45
2022-08-20T09:50:34.632Z,26.45
2022-08-20T09:51:34.653Z,26.43
2022-08-20T09:52:38.896Z,26.39
2022-08-20T09:53:34.637Z,26.46
2022-08-20T09:54:34.629Z,26.38
2022-08-20T09:55:34.626Z,26.46
2022-08-20T09:56:34.632Z,26.4
2022-08-20T09:57:34.637Z,26.47
2022-08-20T09:58:34.622Z,26.5
2022-08-20T09:59:34.626Z,26.51
2022-08-20T10:00:34.628Z,26.47
2022-08-20T10:01:34.701Z,26.45
2022-08-20T10:02:34.634Z,26.39
2022-08-20T10:03:34.625Z,26.43
2022-08-20T10:04:34.642Z,26.39
2022-08-20T10:05:34.637Z,26.47
2022-08-20T10:06:37.811Z,26.4
2022-08-20T10:07:34.617Z,26.51
2022-08-20T10:08:34.618Z,26.47
2022-08-20T10:09:34.630Z,26.46
2022-08-20T10:10:34.614Z,26.46
2022-08-20T10:11:34.612Z,26.35
2022-08-20T10:12:34.615Z,26.43
2022-08-20T10:13:34.607Z,26.36
2022-08-20T10:14:34.617Z,26.52
2022-08-20T10:15:34.613Z,26.45
2022-08-20T10:16:34.609Z,26.51
2022-08-20T10:17:34.610Z,26.52
2022-08-20T10:18:34.616Z,26.47
2022-08-20T10:19:34.595Z,26.44
2022-08-20T10:20:34.607Z,26.4
2022-08-20T10:21:38.684Z,26.46
2022-08-20T10:22:34.602Z,26.48
2022-08-20T10:23:34.614Z,26.39
2022-08-20T10:24:34.593Z,26.47
2022-08-20T10:25:34.598Z,26.39
2022-08-20T10:26:34.607Z,26.37
2022-08-20T10:27:34.596Z,26.38
2022-08-20T10:28:34.600Z,26.48
2022-08-20T10:29:34.600Z,26.51
2022-08-20T10:30:34.590Z,26.47
2022-08-20T10:31:34.591Z,26.37
2022-08-20T10:32:34.615Z,26.4
2022-08-20T10:33:34.584Z,26.47
2022-08-20T10:34:34.589Z,26.41
2022-08-20T10:35:34.580Z,26.39
2022-08-20T10:36:34.587Z,26.38
2022-08-20T10:37:34.595Z,26.38
2022-08-20T10:38:34.600Z,26.5
2022-08-20T10:39:34.627Z,26.41
2022-08-20T10:40:34.574Z,26.43
2022-08-20T10:41:38.791Z,26.43
2022-08-20T10:42:36.968Z,26.55
2022-08-20T10:43:34.600Z,26.47
2022-08-20T10:44:34.575Z,26.5
2022-08-20T10:45:34.576Z,26.46
2022-08-20T10:46:34.584Z,26.46
2022-08-20T10:47:34.568Z,26.47
2022-08-20T10:48:34.578Z,26.46
2022-08-20T10:49:34.575Z,26.45
2022-08-20T10:50:34.567Z,26.44
2022-08-20T10:51:34.568Z,26.42
2022-08-20T10:52:34.565Z,26.5
2022-08-20T10:53:34.577Z,26.47
2022-08-20T10:54:34.562Z,26.4
2022-08-20T10:55:34.564Z,26.44
2022-08-20T10:56:34.564Z,26.44
2022-08-20T10:57:34.564Z,26.56
2022-08-20T10:58:37.616Z,26.53
2022-08-20T10:59:34.555Z,26.52
2022-08-20T11:00:34.581Z,26.47
2022-08-20T11:01:36.740Z,26.49
2022-08-20T11:02:34.552Z,26.48
2022-08-20T11:03:34.563Z,26.5
2022-08-20T11:04:34.569Z,26.46
2022-08-20T11:05:34.565Z,26.47
2022-08-20T11:06:34.547Z,26.46
2022-08-20T11:07:52.815Z,26.44
2022-08-20T11:08:36.298Z,26.43
2022-08-20T11:09:34.543Z,26.5
2022-08-20T11:10:34.569Z,26.43
2022-08-20T11:11:34.537Z,26.43
2022-08-20T11:12:34.553Z,26.42
2022-08-20T11:13:34.548Z,26.45
2022-08-20T11:14:34.541Z,26.44
2022-08-20T11:15:34.552Z,26.54
2022-08-20T11:16:34.538Z,26.5
2022-08-20T11:17:37.273Z,26.49
2022-08-20T11:18:34.532Z,26.46
2022-08-20T11:19:34.538Z,26.5
2022-08-20T11:20:34.543Z,26.5
2022-08-20T11:21:34.536Z,26.6
2022-08-20T11:22:34.527Z,26.56
2022-08-20T11:23:34.529Z,26.51
2022-08-20T11:24:34.532Z,26.44
2022-08-20T11:25:34.535Z,26.47
2022-08-20T11:26:34.524Z,26.44
2022-08-20T11:27:34.525Z,26.47
2022-08-20T11:28:34.530Z,26.46
2022-08-20T11:29:34.525Z,26.43
2022-08-20T11:30:34.538Z,26.4
2022-08-20T11:31:34.515Z,26.48
2022-08-20T11:32:34.532Z,26.46
2022-08-20T11:33:34.520Z,26.49
2022-08-20T11:34:34.514Z,26.49
2022-08-20T11:35:48.290Z,26.5
2022-08-20T11:36:34.515Z,26.5
2022-08-20T11:37:34.510Z,26.55
2022-08-20T11:38:34.514Z,26.51
2022-08-20T11:39:36.605Z,26.5
2022-08-20T11:40:34.521Z,26.51
2022-08-20T11:41:34.551Z,26.44
2022-08-20T11:42:34.510Z,26.52
2022-08-20T11:43:34.502Z,26.45
2022-08-20T11:44:34.499Z,26.51
2022-08-20T11:45:37.709Z,26.41
2022-08-20T11:46:34.504Z,26.45
2022-08-20T11:47:34.498Z,26.54
2022-08-20T11:48:34.516Z,26.55
2022-08-20T11:49:34.504Z,26.56
2022-08-20T11:50:34.504Z,26.58
2022-08-20T11:51:49.157Z,26.5
2022-08-20T11:52:34.499Z,26.55
2022-08-20T11:53:34.508Z,26.45
2022-08-20T11:54:34.496Z,26.5
2022-08-20T11:55:34.490Z,26.46
2022-08-20T11:56:34.509Z,26.5
2022-08-20T11:57:34.495Z,26.44
2022-08-20T11:58:34.487Z,26.53
2022-08-20T11:59:34.481Z,26.55
2022-08-20T12:00:34.607Z,26.63
2022-08-20T12:01:34.501Z,26.47
2022-08-20T12:02:34.592Z,26.5
2022-08-20T12:03:34.485Z,26.49
2022-08-20T12:04:35.177Z,26.52
2022-08-20T12:05:34.503Z,26.5
2022-08-20T12:06:34.496Z,26.44
2022-08-20T12:07:34.477Z,26.45
2022-08-20T12:08:34.480Z,26.45
2022-08-20T12:09:34.478Z,26.52
2022-08-20T12:10:34.479Z,26.43
2022-08-20T12:11:34.488Z,26.52
2022-08-20T12:12:34.468Z,26.52
2022-08-20T12:13:47.383Z,26.47
2022-08-20T12:14:34.470Z,26.5
2022-08-20T12:15:34.464Z,26.51
2022-08-20T12:16:34.473Z,26.57
2022-08-20T12:17:34.469Z,26.43
2022-08-20T12:18:34.476Z,26.49
2022-08-20T12:19:34.461Z,26.46
2022-08-20T12:20:34.472Z,26.53
2022-08-20T12:21:34.472Z,26.51
2022-08-20T12:22:34.478Z,26.47
2022-08-20T12:23:34.462Z,26.49
2022-08-20T12:24:34.455Z,26.55
2022-08-20T12:25:34.459Z,26.43
2022-08-20T12:26:34.454Z,26.4
2022-08-20T12:27:34.476Z,26.48
2022-08-20T12:28:34.454Z,26.43
2022-08-20T12:29:34.454Z,26.5
2022-08-20T12:30:34.455Z,26.48
2022-08-20T12:31:34.449Z,26.47
2022-08-20T12:32:34.461Z,26.53
2022-08-20T12:33:34.463Z,26.46
2022-08-20T12:34:34.448Z,26.43
2022-08-20T12:35:34.448Z,26.51
2022-08-20T12:36:34.444Z,26.48
2022-08-20T12:37:34.440Z,26.42
2022-08-20T12:38:34.467Z,26.46
2022-08-20T12:39:34.481Z,26.46
2022-08-20T12:40:34.532Z,26.44
2022-08-20T12:41:34.454Z,26.35
2022-08-20T12:42:34.451Z,26.44
2022-08-20T12:43:34.445Z,26.4
2022-08-20T12:44:34.437Z,26.42
2022-08-20T12:45:34.435Z,26.39
2022-08-20T12:46:34.435Z,26.4
2022-08-20T12:47:34.434Z,26.5
2022-08-20T12:48:34.446Z,26.45
2022-08-20T12:49:34.434Z,26.42
2022-08-20T12:50:34.429Z,26.52
2022-08-20T12:51:34.439Z,26.43
2022-08-20T12:52:34.427Z,26.5
2022-08-20T12:53:34.478Z,26.49
2022-08-20T12:54:34.430Z,26.52
2022-08-20T12:55:34.427Z,26.39